Magnolia State — KGNQ — position and weather

sailwx.info

Track history (hours):
 
Tides and Currents Weather Stations Pressure Air Temp Water Temp Dewpoint Dewpoint Depression Visibility Wind Speed Wind Dir Waves Ship Positions

Magnolia State

Owner: Crowley Petroleum Services, Inc., Jacksonville, FL. More information available from US FCC via Universal Licensing System and Coast Guard Vessel Documentation Center.

Last reported at 2017-Oct-16 06:35 UTC. Time now 2017-Oct-17 22:28 UTC.
Position N 29°56' W 090°22'.

Length 186 m; draft 11.8 m.

Type: Tanker. MMSI: 338302000.

Date/timePositionNaut miles runAvg speedWind from/ knotsBaromVisibWave heightAir tempDewpointWater temp
2017-Oct-16 06:35N 29°56' W 090°22'181 4.5
2017-Oct-14 14:40N 29°58' W 093°51'1 6.6
2017-Oct-14 14:30N 29°59' W 093°52'3 6.0
2017-Oct-14 14:00N 29°59' W 093°55'2 4.3
2017-Oct-14 13:30N 30°01' W 093°57'1 1.8
2017-Oct-14 13:00N 30°01' W 093°58'0 0.0
2017-Oct-14 12:30N 30°01' W 093°58'0 0.0
2017-Oct-13 08:32N 30°01' W 093°58'0 0.0
2017-Oct-13 08:26N 30°01' W 093°58'0 0.0
2017-Oct-12 14:15N 30°01' W 093°59'1 4.0
2017-Oct-12 13:59N 30°01' W 093°58'3 5.8
2017-Oct-12 13:31N 29°59' W 093°55'3 6.2
2017-Oct-12 13:01N 29°59' W 093°52'3 6.1
2017-Oct-12 12:30N 29°56' W 093°53'4 8.2
2017-Oct-12 12:01N 29°53' W 093°56'4 7.1
2017-Oct-12 11:30N 29°49' W 093°58'4 8.3
2017-Oct-12 10:59N 29°46' W 093°55'5 9.4
2017-Oct-12 10:30N 29°43' W 093°51'612.7
2017-Oct-12 10:00N 29°37' W 093°49'  
2017-Oct-06 16:09N 29°22' W 094°48'411.7
2017-Oct-06 15:51N 29°25' W 094°50'411.0
2017-Oct-06 15:31N 29°29' W 094°51'510.8
2017-Oct-06 15:01N 29°33' W 094°55'510.5
2017-Oct-06 14:31N 29°38' W 094°58'4 8.8
2017-Oct-06 14:01N 29°42' W 094°60'3 6.3
2017-Oct-06 13:31N 29°44' W 095°03'3 5.7
2017-Oct-06 13:00N 29°45' W 095°06'  
Track history (hours):
 
Tides and Currents Weather Stations Pressure Air Temp Water Temp Dewpoint Dewpoint Depression Visibility Wind Speed Wind Dir Waves Ship Positions

Magnolia State

Owner: Crowley Petroleum Services, Inc., Jacksonville, FL. More information available from US FCC via Universal Licensing System and Coast Guard Vessel Documentation Center.

Last reported at 2017-Oct-16 06:35 UTC. Time now 2017-Oct-17 22:28 UTC.
Position N 29°56' W 090°22'.

Length 186 m; draft 11.8 m.

Type: Tanker. MMSI: 338302000.

Date/timePositionNaut miles runAvg speedWind from/ knotsBaromVisibWave heightAir tempDewpointWater temp
2017-Oct-16 06:35N 29°56' W 090°22'181 4.5
2017-Oct-14 14:40N 29°58' W 093°51'1 6.6
2017-Oct-14 14:30N 29°59' W 093°52'3 6.0
2017-Oct-14 14:00N 29°59' W 093°55'2 4.3
2017-Oct-14 13:30N 30°01' W 093°57'1 1.8
2017-Oct-14 13:00N 30°01' W 093°58'0 0.0
2017-Oct-14 12:30N 30°01' W 093°58'0 0.0
2017-Oct-13 08:32N 30°01' W 093°58'0 0.0
2017-Oct-13 08:26N 30°01' W 093°58'0 0.0
2017-Oct-12 14:15N 30°01' W 093°59'1 4.0
2017-Oct-12 13:59N 30°01' W 093°58'3 5.8
2017-Oct-12 13:31N 29°59' W 093°55'3 6.2
2017-Oct-12 13:01N 29°59' W 093°52'3 6.1
2017-Oct-12 12:30N 29°56' W 093°53'4 8.2
2017-Oct-12 12:01N 29°53' W 093°56'4 7.1
2017-Oct-12 11:30N 29°49' W 093°58'4 8.3
2017-Oct-12 10:59N 29°46' W 093°55'5 9.4
2017-Oct-12 10:30N 29°43' W 093°51'612.7
2017-Oct-12 10:00N 29°37' W 093°49'  
2017-Oct-06 16:09N 29°22' W 094°48'411.7
2017-Oct-06 15:51N 29°25' W 094°50'411.0
2017-Oct-06 15:31N 29°29' W 094°51'510.8
2017-Oct-06 15:01N 29°33' W 094°55'510.5
2017-Oct-06 14:31N 29°38' W 094°58'4 8.8
2017-Oct-06 14:01N 29°42' W 094°60'3 6.3
2017-Oct-06 13:31N 29°44' W 095°03'3 5.7
2017-Oct-06 13:00N 29°45' W 095°06'  

Dump ship's entire track history